sensor_id;sensor_type;location;lat;lon;timestamp;temperature;humidity
22430;DHT22;11382;48.086;11.632;2022-11-10T00:00:06;10.80;99.90
22430;DHT22;11382;48.086;11.632;2022-11-10T00:02:54;10.80;99.90
22430;DHT22;11382;48.086;11.632;2022-11-10T00:05:45;10.80;99.90
22430;DHT22;11382;48.086;11.632;2022-11-10T00:08:31;10.90;99.90
22430;DHT22;11382;48.086;11.632;2022-11-10T00:11:19;10.80;99.90
22430;DHT22;11382;48.086;11.632;2022-11-10T00:14:06;10.90;99.90
22430;DHT22;11382;48.086;11.632;2022-11-10T00:17:10;10.90;99.90
22430;DHT22;11382;48.086;11.632;2022-11-10T00:19:58;10.90;99.90
22430;DHT22;11382;48.086;11.632;2022-11-10T00:22:45;10.80;99.90
22430;DHT22;11382;48.086;11.632;2022-11-10T00:25:32;10.90;99.90
22430;DHT22;11382;48.086;11.632;2022-11-10T00:28:18;10.90;99.90
22430;DHT22;11382;48.086;11.632;2022-11-10T00:31:06;10.90;99.90
22430;DHT22;11382;48.086;11.632;2022-11-10T00:33:53;11.00;99.90
22430;DHT22;11382;48.086;11.632;2022-11-10T00:36:41;10.90;99.90
22430;DHT22;11382;48.086;11.632;2022-11-10T00:39:28;11.00;99.90
22430;DHT22;11382;48.086;11.632;2022-11-10T00:42:14;10.90;99.90
22430;DHT22;11382;48.086;11.632;2022-11-10T00:45:01;10.90;99.90
22430;DHT22;11382;48.086;11.632;2022-11-10T00:47:47;11.00;99.90
22430;DHT22;11382;48.086;11.632;2022-11-10T00:50:34;10.90;99.90
22430;DHT22;11382;48.086;11.632;2022-11-10T00:53:22;10.90;99.90
22430;DHT22;11382;48.086;11.632;2022-11-10T00:56:09;10.90;99.90
22430;DHT22;11382;48.086;11.632;2022-11-10T00:58:56;10.90;99.90
22430;DHT22;11382;48.086;11.632;2022-11-10T01:01:42;10.90;99.90
22430;DHT22;11382;48.086;11.632;2022-11-10T01:04:29;11.00;99.90
22430;DHT22;11382;48.086;11.632;2022-11-10T01:07:15;11.00;99.90
22430;DHT22;11382;48.086;11.632;2022-11-10T01:10:04;11.00;99.90
22430;DHT22;11382;48.086;11.632;2022-11-10T01:12:51;11.00;99.90
22430;DHT22;11382;48.086;11.632;2022-11-10T01:15:38;11.00;99.90
22430;DHT22;11382;48.086;11.632;2022-11-10T01:18:24;10.90;99.90
22430;DHT22;11382;48.086;11.632;2022-11-10T01:21:11;10.90;99.90
22430;DHT22;11382;48.086;11.632;2022-11-10T01:23:58;11.00;99.90
22430;DHT22;11382;48.086;11.632;2022-11-10T01:26:46;10.90;99.90
22430;DHT22;11382;48.086;11.632;2022-11-10T01:29:35;10.90;99.90
22430;DHT22;11382;48.086;11.632;2022-11-10T01:32:22;10.90;99.90
22430;DHT22;11382;48.086;11.632;2022-11-10T01:35:09;10.90;99.90
22430;DHT22;11382;48.086;11.632;2022-11-10T01:37:56;10.90;99.90
22430;DHT22;11382;48.086;11.632;2022-11-10T01:40:43;10.90;99.90
22430;DHT22;11382;48.086;11.632;2022-11-10T01:43:32;10.80;99.90
22430;DHT22;11382;48.086;11.632;2022-11-10T01:46:18;10.80;99.90
22430;DHT22;11382;48.086;11.632;2022-11-10T01:49:05;10.90;99.90
22430;DHT22;11382;48.086;11.632;2022-11-10T01:51:55;10.90;99.90
22430;DHT22;11382;48.086;11.632;2022-11-10T01:54:46;10.90;99.90
22430;DHT22;11382;48.086;11.632;2022-11-10T01:57:34;10.90;99.90
22430;DHT22;11382;48.086;11.632;2022-11-10T02:00:23;10.90;99.90
22430;DHT22;11382;48.086;11.632;2022-11-10T02:03:13;10.90;99.90
22430;DHT22;11382;48.086;11.632;2022-11-10T02:06:00;10.90;99.90
22430;DHT22;11382;48.086;11.632;2022-11-10T02:08:48;10.90;99.90
22430;DHT22;11382;48.086;11.632;2022-11-10T02:11:36;10.90;99.90
22430;DHT22;11382;48.086;11.632;2022-11-10T02:14:24;10.90;99.90
22430;DHT22;11382;48.086;11.632;2022-11-10T02:17:12;10.80;99.90
22430;DHT22;11382;48.086;11.632;2022-11-10T02:20:00;10.80;99.90
22430;DHT22;11382;48.086;11.632;2022-11-10T02:22:50;10.80;99.90
22430;DHT22;11382;48.086;11.632;2022-11-10T02:25:36;10.80;99.90
22430;DHT22;11382;48.086;11.632;2022-11-10T02:28:24;10.70;99.90
22430;DHT22;11382;48.086;11.632;2022-11-10T02:31:11;10.70;99.90
22430;DHT22;11382;48.086;11.632;2022-11-10T02:33:57;10.80;99.90
22430;DHT22;11382;48.086;11.632;2022-11-10T02:36:44;10.70;99.90
22430;DHT22;11382;48.086;11.632;2022-11-10T02:39:32;10.70;99.90
22430;DHT22;11382;48.086;11.632;2022-11-10T02:42:19;10.70;99.90
22430;DHT22;11382;48.086;11.632;2022-11-10T02:45:06;10.70;99.90
22430;DHT22;11382;48.086;11.632;2022-11-10T02:47:53;10.70;99.90
22430;DHT22;11382;48.086;11.632;2022-11-10T02:50:40;10.70;99.90
22430;DHT22;11382;48.086;11.632;2022-11-10T02:53:27;10.70;99.90
22430;DHT22;11382;48.086;11.632;2022-11-10T02:56:15;10.70;99.90
22430;DHT22;11382;48.086;11.632;2022-11-10T02:59:01;10.70;99.90
22430;DHT22;11382;48.086;11.632;2022-11-10T03:01:49;10.70;99.90
22430;DHT22;11382;48.086;11.632;2022-11-10T03:04:35;10.70;99.90
22430;DHT22;11382;48.086;11.632;2022-11-10T03:07:21;10.70;99.90
22430;DHT22;11382;48.086;11.632;2022-11-10T03:10:08;10.70;99.90
22430;DHT22;11382;48.086;11.632;2022-11-10T03:12:58;10.70;99.90
22430;DHT22;11382;48.086;11.632;2022-11-10T03:15:46;10.70;99.90
22430;DHT22;11382;48.086;11.632;2022-11-10T03:18:33;10.60;99.90
22430;DHT22;11382;48.086;11.632;2022-11-10T03:21:19;10.50;99.90
22430;DHT22;11382;48.086;11.632;2022-11-10T03:24:06;10.40;99.90
22430;DHT22;11382;48.086;11.632;2022-11-10T03:26:53;10.20;99.90
22430;DHT22;11382;48.086;11.632;2022-11-10T03:29:41;10.10;99.90
22430;DHT22;11382;48.086;11.632;2022-11-10T03:32:28;10.00;99.90
22430;DHT22;11382;48.086;11.632;2022-11-10T03:35:14;9.90;99.90
22430;DHT22;11382;48.086;11.632;2022-11-10T03:38:01;10.00;99.90
22430;DHT22;11382;48.086;11.632;2022-11-10T03:40:49;9.90;99.90
22430;DHT22;11382;48.086;11.632;2022-11-10T03:43:56;9.90;99.90
22430;DHT22;11382;48.086;11.632;2022-11-10T03:46:44;9.80;99.90
22430;DHT22;11382;48.086;11.632;2022-11-10T03:49:35;9.80;99.90
22430;DHT22;11382;48.086;11.632;2022-11-10T03:52:22;9.80;99.90
22430;DHT22;11382;48.086;11.632;2022-11-10T03:55:10;9.90;99.90
22430;DHT22;11382;48.086;11.632;2022-11-10T03:58:00;9.90;99.90
22430;DHT22;11382;48.086;11.632;2022-11-10T04:00:48;9.90;99.90
22430;DHT22;11382;48.086;11.632;2022-11-10T04:03:36;9.90;99.90
22430;DHT22;11382;48.086;11.632;2022-11-10T04:06:22;9.80;99.90
22430;DHT22;11382;48.086;11.632;2022-11-10T04:09:27;9.90;99.90
22430;DHT22;11382;48.086;11.632;2022-11-10T04:12:13;10.00;99.90
22430;DHT22;11382;48.086;11.632;2022-11-10T04:15:18;10.00;99.90
22430;DHT22;11382;48.086;11.632;2022-11-10T04:18:22;10.00;99.90
22430;DHT22;11382;48.086;11.632;2022-11-10T04:21:15;10.00;99.90
22430;DHT22;11382;48.086;11.632;2022-11-10T04:24:02;10.10;99.90
22430;DHT22;11382;48.086;11.632;2022-11-10T04:26:49;10.10;99.90
22430;DHT22;11382;48.086;11.632;2022-11-10T04:29:36;10.20;99.90
22430;DHT22;11382;48.086;11.632;2022-11-10T04:32:23;10.30;99.90
22430;DHT22;11382;48.086;11.632;2022-11-10T04:35:09;10.30;99.90
22430;DHT22;11382;48.086;11.632;2022-11-10T04:37:58;10.30;99.90
22430;DHT22;11382;48.086;11.632;2022-11-10T04:40:45;10.20;99.90
22430;DHT22;11382;48.086;11.632;2022-11-10T04:43:32;10.20;99.90
22430;DHT22;11382;48.086;11.632;2022-11-10T04:46:23;10.10;99.90
22430;DHT22;11382;48.086;11.632;2022-11-10T04:49:10;10.20;99.90
22430;DHT22;11382;48.086;11.632;2022-11-10T04:51:57;10.10;99.90
22430;DHT22;11382;48.086;11.632;2022-11-10T04:54:45;10.20;99.90
22430;DHT22;11382;48.086;11.632;2022-11-10T04:57:31;10.20;99.90
22430;DHT22;11382;48.086;11.632;2022-11-10T05:00:18;10.20;99.90
22430;DHT22;11382;48.086;11.632;2022-11-10T05:03:07;10.20;99.90
22430;DHT22;11382;48.086;11.632;2022-11-10T05:05:54;10.20;99.90
22430;DHT22;11382;48.086;11.632;2022-11-10T05:08:42;10.20;99.90
22430;DHT22;11382;48.086;11.632;2022-11-10T05:11:30;10.10;99.90
22430;DHT22;11382;48.086;11.632;2022-11-10T05:14:17;10.10;99.90
22430;DHT22;11382;48.086;11.632;2022-11-10T05:17:03;10.10;99.90
22430;DHT22;11382;48.086;11.632;2022-11-10T05:19:51;10.00;99.90
22430;DHT22;11382;48.086;11.632;2022-11-10T05:22:37;10.00;99.90
22430;DHT22;11382;48.086;11.632;2022-11-10T05:25:24;10.00;99.90
22430;DHT22;11382;48.086;11.632;2022-11-10T05:28:12;10.00;99.90
22430;DHT22;11382;48.086;11.632;2022-11-10T05:30:58;9.90;99.90
22430;DHT22;11382;48.086;11.632;2022-11-10T05:33:45;9.80;99.90
22430;DHT22;11382;48.086;11.632;2022-11-10T05:36:32;9.80;99.90
22430;DHT22;11382;48.086;11.632;2022-11-10T05:39:18;9.80;99.90
22430;DHT22;11382;48.086;11.632;2022-11-10T05:42:05;9.90;99.90
22430;DHT22;11382;48.086;11.632;2022-11-10T05:44:57;9.80;99.90
22430;DHT22;11382;48.086;11.632;2022-11-10T05:47:43;9.80;99.90
22430;DHT22;11382;48.086;11.632;2022-11-10T05:50:30;9.70;99.90
22430;DHT22;11382;48.086;11.632;2022-11-10T05:53:16;9.70;99.90
22430;DHT22;11382;48.086;11.632;2022-11-10T05:56:04;9.70;99.90
22430;DHT22;11382;48.086;11.632;2022-11-10T05:58:51;9.70;99.90
22430;DHT22;11382;48.086;11.632;2022-11-10T06:01:39;9.70;99.90
22430;DHT22;11382;48.086;11.632;2022-11-10T06:04:26;9.70;99.90
22430;DHT22;11382;48.086;11.632;2022-11-10T06:07:12;9.70;99.90
22430;DHT22;11382;48.086;11.632;2022-11-10T06:09:59;9.70;99.90
22430;DHT22;11382;48.086;11.632;2022-11-10T06:12:45;9.80;99.90
22430;DHT22;11382;48.086;11.632;2022-11-10T06:15:32;9.80;99.90
22430;DHT22;11382;48.086;11.632;2022-11-10T06:18:20;9.80;99.90
22430;DHT22;11382;48.086;11.632;2022-11-10T06:21:07;9.90;99.90
22430;DHT22;11382;48.086;11.632;2022-11-10T06:23:53;9.90;99.90
22430;DHT22;11382;48.086;11.632;2022-11-10T06:26:40;9.90;99.90
22430;DHT22;11382;48.086;11.632;2022-11-10T06:29:27;9.90;99.90
22430;DHT22;11382;48.086;11.632;2022-11-10T06:32:13;9.90;99.90
22430;DHT22;11382;48.086;11.632;2022-11-10T06:35:03;9.90;99.90
22430;DHT22;11382;48.086;11.632;2022-11-10T06:37:57;9.80;99.90
22430;DHT22;11382;48.086;11.632;2022-11-10T06:40:43;9.80;99.90
22430;DHT22;11382;48.086;11.632;2022-11-10T06:43:30;9.80;99.90
22430;DHT22;11382;48.086;11.632;2022-11-10T06:46:16;9.80;99.90
22430;DHT22;11382;48.086;11.632;2022-11-10T06:49:03;9.90;99.90
22430;DHT22;11382;48.086;11.632;2022-11-10T06:51:52;9.90;99.90
22430;DHT22;11382;48.086;11.632;2022-11-10T06:54:38;9.90;99.90
22430;DHT22;11382;48.086;11.632;2022-11-10T06:57:25;9.90;99.90
22430;DHT22;11382;48.086;11.632;2022-11-10T07:00:13;9.90;99.90
22430;DHT22;11382;48.086;11.632;2022-11-10T07:03:02;9.90;99.90
22430;DHT22;11382;48.086;11.632;2022-11-10T07:05:48;10.00;99.90
22430;DHT22;11382;48.086;11.632;2022-11-10T07:08:38;10.00;99.90
22430;DHT22;11382;48.086;11.632;2022-11-10T07:11:25;10.00;99.90
22430;DHT22;11382;48.086;11.632;2022-11-10T07:14:11;10.00;99.90
22430;DHT22;11382;48.086;11.632;2022-11-10T07:16:58;10.00;99.90
22430;DHT22;11382;48.086;11.632;2022-11-10T07:19:46;10.00;99.90
22430;DHT22;11382;48.086;11.632;2022-11-10T07:22:33;10.00;99.90
22430;DHT22;11382;48.086;11.632;2022-11-10T07:25:21;10.00;99.90
22430;DHT22;11382;48.086;11.632;2022-11-10T07:28:08;10.10;99.90
22430;DHT22;11382;48.086;11.632;2022-11-10T07:30:55;9.90;99.90
22430;DHT22;11382;48.086;11.632;2022-11-10T07:33:42;9.80;99.90
22430;DHT22;11382;48.086;11.632;2022-11-10T07:36:33;9.90;99.90
22430;DHT22;11382;48.086;11.632;2022-11-10T07:39:20;10.30;99.90
22430;DHT22;11382;48.086;11.632;2022-11-10T07:42:08;11.00;99.90
22430;DHT22;11382;48.086;11.632;2022-11-10T07:44:55;11.50;99.90
22430;DHT22;11382;48.086;11.632;2022-11-10T07:47:41;11.70;99.90
22430;DHT22;11382;48.086;11.632;2022-11-10T07:50:28;11.70;99.90
22430;DHT22;11382;48.086;11.632;2022-11-10T07:53:16;11.50;99.90
22430;DHT22;11382;48.086;11.632;2022-11-10T07:56:04;11.40;99.90
22430;DHT22;11382;48.086;11.632;2022-11-10T07:58:52;11.30;99.90
22430;DHT22;11382;48.086;11.632;2022-11-10T08:01:40;11.30;99.90
22430;DHT22;11382;48.086;11.632;2022-11-10T08:04:26;11.70;99.90
22430;DHT22;11382;48.086;11.632;2022-11-10T08:07:13;11.70;99.90
22430;DHT22;11382;48.086;11.632;2022-11-10T08:10:00;11.50;99.90
22430;DHT22;11382;48.086;11.632;2022-11-10T08:12:52;11.30;99.90
22430;DHT22;11382;48.086;11.632;2022-11-10T08:15:41;11.20;99.90
22430;DHT22;11382;48.086;11.632;2022-11-10T08:18:27;11.60;99.90
22430;DHT22;11382;48.086;11.632;2022-11-10T08:21:19;13.30;99.90
22430;DHT22;11382;48.086;11.632;2022-11-10T08:24:06;15.00;99.90
22430;DHT22;11382;48.086;11.632;2022-11-10T08:27:14;14.40;99.90
22430;DHT22;11382;48.086;11.632;2022-11-10T08:30:00;13.10;99.90
22430;DHT22;11382;48.086;11.632;2022-11-10T08:32:48;12.60;99.90
22430;DHT22;11382;48.086;11.632;2022-11-10T08:35:36;14.00;99.90
22430;DHT22;11382;48.086;11.632;2022-11-10T08:38:23;15.10;99.90
22430;DHT22;11382;48.086;11.632;2022-11-10T08:41:10;15.90;99.90
22430;DHT22;11382;48.086;11.632;2022-11-10T08:43:56;16.60;99.90
22430;DHT22;11382;48.086;11.632;2022-11-10T08:46:43;16.80;99.90
22430;DHT22;11382;48.086;11.632;2022-11-10T08:49:33;16.70;99.90
22430;DHT22;11382;48.086;11.632;2022-11-10T08:52:19;16.90;99.90
22430;DHT22;11382;48.086;11.632;2022-11-10T08:55:06;17.60;99.90
22430;DHT22;11382;48.086;11.632;2022-11-10T08:57:57;17.90;99.90
22430;DHT22;11382;48.086;11.632;2022-11-10T09:00:44;18.00;99.90
22430;DHT22;11382;48.086;11.632;2022-11-10T09:03:30;17.90;99.90
22430;DHT22;11382;48.086;11.632;2022-11-10T09:06:19;18.30;99.90
22430;DHT22;11382;48.086;11.632;2022-11-10T09:09:05;18.00;99.90
22430;DHT22;11382;48.086;11.632;2022-11-10T09:11:52;17.70;99.90
22430;DHT22;11382;48.086;11.632;2022-11-10T09:14:39;17.30;99.90
22430;DHT22;11382;48.086;11.632;2022-11-10T09:17:26;17.10;99.90
22430;DHT22;11382;48.086;11.632;2022-11-10T09:20:12;16.90;99.90
22430;DHT22;11382;48.086;11.632;2022-11-10T09:23:04;18.30;99.90
22430;DHT22;11382;48.086;11.632;2022-11-10T09:25:53;19.80;99.90
22430;DHT22;11382;48.086;11.632;2022-11-10T09:28:40;20.90;99.90
22430;DHT22;11382;48.086;11.632;2022-11-10T09:31:27;21.20;99.90
22430;DHT22;11382;48.086;11.632;2022-11-10T09:34:13;21.20;99.90
22430;DHT22;11382;48.086;11.632;2022-11-10T09:37:00;21.00;99.90
22430;DHT22;11382;48.086;11.632;2022-11-10T09:39:48;21.10;99.90
22430;DHT22;11382;48.086;11.632;2022-11-10T09:42:38;20.80;99.90
22430;DHT22;11382;48.086;11.632;2022-11-10T09:45:27;21.00;99.90
22430;DHT22;11382;48.086;11.632;2022-11-10T09:48:24;21.10;99.90
22430;DHT22;11382;48.086;11.632;2022-11-10T09:51:15;21.50;99.90
22430;DHT22;11382;48.086;11.632;2022-11-10T09:54:08;22.30;99.90
22430;DHT22;11382;48.086;11.632;2022-11-10T09:57:05;21.80;99.90
22430;DHT22;11382;48.086;11.632;2022-11-10T09:59:52;21.10;99.90
22430;DHT22;11382;48.086;11.632;2022-11-10T10:02:42;20.10;99.90
22430;DHT22;11382;48.086;11.632;2022-11-10T10:05:43;20.60;99.90
22430;DHT22;11382;48.086;11.632;2022-11-10T10:08:44;21.10;99.90
22430;DHT22;11382;48.086;11.632;2022-11-10T10:11:42;21.50;99.90
22430;DHT22;11382;48.086;11.632;2022-11-10T10:14:46;22.20;99.40
22430;DHT22;11382;48.086;11.632;2022-11-10T10:17:42;22.50;98.40
22430;DHT22;11382;48.086;11.632;2022-11-10T10:20:34;22.20;98.60
22430;DHT22;11382;48.086;11.632;2022-11-10T10:23:27;20.50;98.90
22430;DHT22;11382;48.086;11.632;2022-11-10T10:26:39;19.10;99.90
22430;DHT22;11382;48.086;11.632;2022-11-10T10:29:31;18.20;99.90
22430;DHT22;11382;48.086;11.632;2022-11-10T10:32:25;17.60;99.90
22430;DHT22;11382;48.086;11.632;2022-11-10T10:35:13;17.20;99.90
22430;DHT22;11382;48.086;11.632;2022-11-10T10:38:01;16.40;99.90
22430;DHT22;11382;48.086;11.632;2022-11-10T10:40:51;15.90;99.90
22430;DHT22;11382;48.086;11.632;2022-11-10T10:43:39;15.50;99.90
22430;DHT22;11382;48.086;11.632;2022-11-10T10:46:27;15.60;99.90
22430;DHT22;11382;48.086;11.632;2022-11-10T10:49:22;15.80;99.90
22430;DHT22;11382;48.086;11.632;2022-11-10T10:52:16;17.20;99.90
22430;DHT22;11382;48.086;11.632;2022-11-10T10:55:11;18.50;99.90
22430;DHT22;11382;48.086;11.632;2022-11-10T10:58:00;19.30;99.90
22430;DHT22;11382;48.086;11.632;2022-11-10T11:00:49;18.50;99.90
22430;DHT22;11382;48.086;11.632;2022-11-10T11:03:39;17.60;99.90
22430;DHT22;11382;48.086;11.632;2022-11-10T11:06:29;17.00;99.90
22430;DHT22;11382;48.086;11.632;2022-11-10T11:09:17;18.30;99.90
22430;DHT22;11382;48.086;11.632;2022-11-10T11:12:06;19.10;99.90
22430;DHT22;11382;48.086;11.632;2022-11-10T11:15:10;19.90;99.90
22430;DHT22;11382;48.086;11.632;2022-11-10T11:17:59;19.40;99.90
22430;DHT22;11382;48.086;11.632;2022-11-10T11:20:52;18.70;99.90
22430;DHT22;11382;48.086;11.632;2022-11-10T11:23:58;17.60;99.90
22430;DHT22;11382;48.086;11.632;2022-11-10T11:26:52;16.60;99.90
22430;DHT22;11382;48.086;11.632;2022-11-10T11:30:03;16.10;99.90
22430;DHT22;11382;48.086;11.632;2022-11-10T11:33:17;15.40;99.90
22430;DHT22;11382;48.086;11.632;2022-11-10T11:36:17;14.80;99.90
22430;DHT22;11382;48.086;11.632;2022-11-10T11:39:25;14.60;99.90
22430;DHT22;11382;48.086;11.632;2022-11-10T11:42:24;14.40;99.90
22430;DHT22;11382;48.086;11.632;2022-11-10T11:45:16;14.30;99.90
22430;DHT22;11382;48.086;11.632;2022-11-10T11:48:21;14.20;99.90
22430;DHT22;11382;48.086;11.632;2022-11-10T11:51:14;14.50;99.90
22430;DHT22;11382;48.086;11.632;2022-11-10T11:54:18;14.80;99.90
22430;DHT22;11382;48.086;11.632;2022-11-10T11:57:19;15.20;99.90
22430;DHT22;11382;48.086;11.632;2022-11-10T12:00:12;15.60;99.90
22430;DHT22;11382;48.086;11.632;2022-11-10T12:03:20;15.70;99.90
22430;DHT22;11382;48.086;11.632;2022-11-10T12:06:29;15.80;99.90
22430;DHT22;11382;48.086;11.632;2022-11-10T12:09:26;15.80;99.90
22430;DHT22;11382;48.086;11.632;2022-11-10T12:12:34;15.80;99.90
22430;DHT22;11382;48.086;11.632;2022-11-10T12:15:29;15.80;99.90
22430;DHT22;11382;48.086;11.632;2022-11-10T12:18:27;15.80;99.90
22430;DHT22;11382;48.086;11.632;2022-11-10T12:21:23;15.60;99.90
22430;DHT22;11382;48.086;11.632;2022-11-10T12:24:26;15.70;99.90
22430;DHT22;11382;48.086;11.632;2022-11-10T12:27:19;15.90;99.90
22430;DHT22;11382;48.086;11.632;2022-11-10T12:30:11;16.10;99.90
22430;DHT22;11382;48.086;11.632;2022-11-10T12:33:05;15.60;99.90
22430;DHT22;11382;48.086;11.632;2022-11-10T12:35:56;15.50;99.90
22430;DHT22;11382;48.086;11.632;2022-11-10T12:38:50;15.50;99.90
22430;DHT22;11382;48.086;11.632;2022-11-10T12:41:58;15.50;99.90
22430;DHT22;11382;48.086;11.632;2022-11-10T12:44:56;15.60;99.90
22430;DHT22;11382;48.086;11.632;2022-11-10T12:47:46;15.60;99.90
22430;DHT22;11382;48.086;11.632;2022-11-10T12:50:38;15.30;99.90
22430;DHT22;11382;48.086;11.632;2022-11-10T12:53:29;15.30;99.90
22430;DHT22;11382;48.086;11.632;2022-11-10T12:56:18;15.00;99.90
22430;DHT22;11382;48.086;11.632;2022-11-10T12:59:20;14.70;99.90
22430;DHT22;11382;48.086;11.632;2022-11-10T13:02:27;15.20;99.90
22430;DHT22;11382;48.086;11.632;2022-11-10T13:05:31;15.00;99.90
22430;DHT22;11382;48.086;11.632;2022-11-10T13:08:24;15.30;99.90
22430;DHT22;11382;48.086;11.632;2022-11-10T13:11:25;15.30;99.90
22430;DHT22;11382;48.086;11.632;2022-11-10T13:14:22;15.30;99.90
22430;DHT22;11382;48.086;11.632;2022-11-10T13:20:46;15.30;99.90
22430;DHT22;11382;48.086;11.632;2022-11-10T13:24:16;15.30;99.90
22430;DHT22;11382;48.086;11.632;2022-11-10T13:27:09;15.30;99.90
22430;DHT22;11382;48.086;11.632;2022-11-10T13:29:58;15.40;99.90
22430;DHT22;11382;48.086;11.632;2022-11-10T13:32:44;15.40;99.90
22430;DHT22;11382;48.086;11.632;2022-11-10T13:35:50;15.50;99.90
22430;DHT22;11382;48.086;11.632;2022-11-10T13:38:40;15.50;99.90
22430;DHT22;11382;48.086;11.632;2022-11-10T13:41:32;15.10;99.90
22430;DHT22;11382;48.086;11.632;2022-11-10T13:44:22;15.20;99.90
22430;DHT22;11382;48.086;11.632;2022-11-10T13:47:33;15.20;99.90
22430;DHT22;11382;48.086;11.632;2022-11-10T13:50:34;15.30;99.90
22430;DHT22;11382;48.086;11.632;2022-11-10T13:53:31;15.40;99.90
22430;DHT22;11382;48.086;11.632;2022-11-10T13:56:36;15.30;99.90
22430;DHT22;11382;48.086;11.632;2022-11-10T13:59:27;15.20;99.90
22430;DHT22;11382;48.086;11.632;2022-11-10T14:06:03;15.40;99.90
22430;DHT22;11382;48.086;11.632;2022-11-10T14:08:55;15.40;99.90
22430;DHT22;11382;48.086;11.632;2022-11-10T14:11:44;15.20;99.90
22430;DHT22;11382;48.086;11.632;2022-11-10T14:14:46;15.10;99.90
22430;DHT22;11382;48.086;11.632;2022-11-10T14:17:39;15.00;99.90
22430;DHT22;11382;48.086;11.632;2022-11-10T14:20:31;14.80;99.90
22430;DHT22;11382;48.086;11.632;2022-11-10T14:23:25;14.90;99.90
22430;DHT22;11382;48.086;11.632;2022-11-10T14:26:21;14.90;99.90
22430;DHT22;11382;48.086;11.632;2022-11-10T14:29:31;14.80;99.90
22430;DHT22;11382;48.086;11.632;2022-11-10T14:32:22;14.80;99.90
22430;DHT22;11382;48.086;11.632;2022-11-10T14:35:21;14.80;99.90
22430;DHT22;11382;48.086;11.632;2022-11-10T14:38:16;14.70;99.90
22430;DHT22;11382;48.086;11.632;2022-11-10T14:41:16;14.50;99.90
22430;DHT22;11382;48.086;11.632;2022-11-10T14:44:05;14.50;99.90
22430;DHT22;11382;48.086;11.632;2022-11-10T14:46:52;14.40;99.90
22430;DHT22;11382;48.086;11.632;2022-11-10T14:49:38;14.30;99.90
22430;DHT22;11382;48.086;11.632;2022-11-10T14:52:25;14.10;99.90
22430;DHT22;11382;48.086;11.632;2022-11-10T14:55:16;14.10;99.90
22430;DHT22;11382;48.086;11.632;2022-11-10T14:58:11;14.00;99.90
22430;DHT22;11382;48.086;11.632;2022-11-10T15:00:59;13.90;99.90
22430;DHT22;11382;48.086;11.632;2022-11-10T15:03:47;13.90;99.90
22430;DHT22;11382;48.086;11.632;2022-11-10T15:06:34;13.80;99.90
22430;DHT22;11382;48.086;11.632;2022-11-10T15:09:23;13.70;99.90
22430;DHT22;11382;48.086;11.632;2022-11-10T15:12:21;13.50;99.90
22430;DHT22;11382;48.086;11.632;2022-11-10T15:15:20;13.30;99.90
22430;DHT22;11382;48.086;11.632;2022-11-10T15:18:22;13.20;99.90
22430;DHT22;11382;48.086;11.632;2022-11-10T15:21:11;13.10;99.90
22430;DHT22;11382;48.086;11.632;2022-11-10T15:23:59;12.90;99.90
22430;DHT22;11382;48.086;11.632;2022-11-10T15:26:47;12.80;99.90
22430;DHT22;11382;48.086;11.632;2022-11-10T15:29:33;12.70;99.90
22430;DHT22;11382;48.086;11.632;2022-11-10T15:32:23;12.50;99.90
22430;DHT22;11382;48.086;11.632;2022-11-10T15:35:25;12.40;99.90
22430;DHT22;11382;48.086;11.632;2022-11-10T15:38:32;12.20;99.90
22430;DHT22;11382;48.086;11.632;2022-11-10T15:41:22;12.10;99.90
22430;DHT22;11382;48.086;11.632;2022-11-10T15:44:13;11.90;99.90
22430;DHT22;11382;48.086;11.632;2022-11-10T15:47:00;11.60;99.90
22430;DHT22;11382;48.086;11.632;2022-11-10T15:49:48;11.50;99.90
22430;DHT22;11382;48.086;11.632;2022-11-10T15:52:37;11.30;99.90
22430;DHT22;11382;48.086;11.632;2022-11-10T15:55:24;11.10;99.90
22430;DHT22;11382;48.086;11.632;2022-11-10T15:58:12;11.00;99.90
22430;DHT22;11382;48.086;11.632;2022-11-10T16:01:01;10.80;99.90
22430;DHT22;11382;48.086;11.632;2022-11-10T16:03:48;10.80;99.90
22430;DHT22;11382;48.086;11.632;2022-11-10T16:06:37;10.60;99.90
22430;DHT22;11382;48.086;11.632;2022-11-10T16:09:24;10.50;99.90
22430;DHT22;11382;48.086;11.632;2022-11-10T16:12:14;10.40;99.90
22430;DHT22;11382;48.086;11.632;2022-11-10T16:15:02;10.40;99.90
22430;DHT22;11382;48.086;11.632;2022-11-10T16:17:49;10.50;99.90
22430;DHT22;11382;48.086;11.632;2022-11-10T16:20:35;10.50;99.90
22430;DHT22;11382;48.086;11.632;2022-11-10T16:23:24;10.40;99.90
22430;DHT22;11382;48.086;11.632;2022-11-10T16:26:13;10.30;99.90
22430;DHT22;11382;48.086;11.632;2022-11-10T16:29:01;10.10;99.90
22430;DHT22;11382;48.086;11.632;2022-11-10T16:31:48;9.90;99.90
22430;DHT22;11382;48.086;11.632;2022-11-10T16:34:35;9.80;99.90
22430;DHT22;11382;48.086;11.632;2022-11-10T16:37:21;9.60;99.90
22430;DHT22;11382;48.086;11.632;2022-11-10T16:40:15;9.50;99.90
22430;DHT22;11382;48.086;11.632;2022-11-10T16:43:01;9.50;99.90
22430;DHT22;11382;48.086;11.632;2022-11-10T16:45:49;9.20;99.90
22430;DHT22;11382;48.086;11.632;2022-11-10T16:48:36;9.30;99.90
22430;DHT22;11382;48.086;11.632;2022-11-10T16:51:28;9.20;99.90
22430;DHT22;11382;48.086;11.632;2022-11-10T16:54:15;9.10;99.90
22430;DHT22;11382;48.086;11.632;2022-11-10T16:57:09;9.00;99.90
22430;DHT22;11382;48.086;11.632;2022-11-10T16:59:55;8.80;99.90
22430;DHT22;11382;48.086;11.632;2022-11-10T17:02:43;8.80;99.90
22430;DHT22;11382;48.086;11.632;2022-11-10T17:05:36;8.70;99.90
22430;DHT22;11382;48.086;11.632;2022-11-10T17:08:24;8.60;99.90
22430;DHT22;11382;48.086;11.632;2022-11-10T17:11:12;8.50;99.90
22430;DHT22;11382;48.086;11.632;2022-11-10T17:13:59;8.30;99.90
22430;DHT22;11382;48.086;11.632;2022-11-10T17:16:46;8.30;99.90
22430;DHT22;11382;48.086;11.632;2022-11-10T17:19:33;8.30;99.90
22430;DHT22;11382;48.086;11.632;2022-11-10T17:22:20;8.20;99.90
22430;DHT22;11382;48.086;11.632;2022-11-10T17:25:12;8.00;99.90
22430;DHT22;11382;48.086;11.632;2022-11-10T17:27:59;8.00;99.90
22430;DHT22;11382;48.086;11.632;2022-11-10T17:30:47;7.90;99.90
22430;DHT22;11382;48.086;11.632;2022-11-10T17:33:36;7.80;99.90
22430;DHT22;11382;48.086;11.632;2022-11-10T17:36:23;7.80;99.90
22430;DHT22;11382;48.086;11.632;2022-11-10T17:39:11;7.70;99.90
22430;DHT22;11382;48.086;11.632;2022-11-10T17:42:00;7.60;99.90
22430;DHT22;11382;48.086;11.632;2022-11-10T17:44:46;7.40;99.90
22430;DHT22;11382;48.086;11.632;2022-11-10T17:47:34;7.30;99.90
22430;DHT22;11382;48.086;11.632;2022-11-10T17:50:22;7.30;99.90